Time;durP1;ratioP1;P1;durP2;ratioP2;P2;SDS_P1;SDS_P2;PMS_P1;PMS_P2;Temp;Humidity;BMP_temperature;BMP_pressure;BME280_temperature;BME280_humidity;BME280_pressure;Samples;Min_cycle;Max_cycle;Signal;HPM_P1;HPM_P2
2022/01/19 00:00:22;;;;;;;;;;;;;;;27.26;52.63;98282.77;624615;227;68621;-66
2022/01/19 00:02:49;;;;;;;;;;;;;;;27.29;50.52;98278.70;624586;227;62713;-67
2022/01/19 00:05:17;;;;;;;;;;;;;;;27.25;54.36;98285.73;624595;227;66332;-67
2022/01/19 00:07:44;;;;;;;;;;;;;;;27.25;51.24;98283.03;624681;227;66852;-67
2022/01/19 00:10:16;;;;;;;;;;;;;;;27.23;50.13;98292.23;624666;227;62730;-67
2022/01/19 00:12:43;;;;;;;;;;;;;;;27.21;52.94;98291.70;624574;226;66250;-67
2022/01/19 00:15:10;;;;;;;;;;;;;;;27.21;52.83;98290.89;624647;227;68739;-67
2022/01/19 00:17:38;;;;;;;;;;;;;;;27.18;53.83;98292.27;624615;227;62632;-67
2022/01/19 00:20:07;;;;;;;;;;;;;;;27.19;48.53;98306.55;624666;227;69087;-67
2022/01/19 00:22:35;;;;;;;;;;;;;;;27.16;52.19;98310.62;624657;227;68791;-67
2022/01/19 00:25:03;;;;;;;;;;;;;;;27.17;53.83;98306.85;624636;227;64990;-67
2022/01/19 00:27:30;;;;;;;;;;;;;;;27.15;53.59;98308.19;624604;227;66374;-67
2022/01/19 00:29:58;;;;;;;;;;;;;;;27.14;52.42;98303.86;624646;227;66395;-66
2022/01/19 00:32:26;;;;;;;;;;;;;;;27.12;52.81;98306.02;624612;227;65200;-66
2022/01/19 00:34:54;;;;;;;;;;;;;;;27.12;52.61;98319.52;624722;227;68750;-66
2022/01/19 00:37:21;;;;;;;;;;;;;;;27.12;53.07;98325.74;624630;227;66331;-65
2022/01/19 00:39:49;;;;;;;;;;;;;;;27.08;54.85;98313.88;624620;227;64539;-65
2022/01/19 00:42:17;;;;;;;;;;;;;;;27.06;52.67;98310.64;624640;227;66418;-68
2022/01/19 00:44:44;;;;;;;;;;;;;;;27.06;54.20;98309.84;624644;227;66449;-68
2022/01/19 00:47:12;;;;;;;;;;;;;;;27.06;50.70;98317.94;624642;227;63745;-69
2022/01/19 00:49:42;;;;;;;;;;;;;;;27.06;51.07;98310.64;624615;227;66432;-69
2022/01/19 00:52:09;;;;;;;;;;;;;;;27.06;53.63;98315.24;624613;226;67278;-69
2022/01/19 00:54:38;;;;;;;;;;;;;;;27.01;55.76;98321.50;624640;227;65995;-68
2022/01/19 00:57:06;;;;;;;;;;;;;;;26.99;54.44;98323.66;624627;227;68784;-68
2022/01/19 00:59:33;;;;;;;;;;;;;;;26.97;53.97;98312.34;624674;227;66872;-68
2022/01/19 01:02:01;;;;;;;;;;;;;;;26.97;54.42;98312.34;624654;227;62944;-68
2022/01/19 01:04:29;;;;;;;;;;;;;;;26.95;54.40;98318.00;624653;227;66405;-68
2022/01/19 01:06:56;;;;;;;;;;;;;;;26.96;54.88;98311.53;624623;227;68949;-68
2022/01/19 01:09:24;;;;;;;;;;;;;;;26.95;53.40;98314.50;624660;227;64835;-68
2022/01/19 01:12:08;;;;;;;;;;;;;;;26.93;56.19;98316.69;624630;227;69934;-66
2022/01/19 01:20:03;;;;;;;;;;;;;;;26.89;53.42;98335.30;624679;227;67453;-67
2022/01/19 01:22:31;;;;;;;;;;;;;;;26.88;56.08;98333.70;624672;227;68480;-67
2022/01/19 01:24:58;;;;;;;;;;;;;;;26.86;55.39;98330.47;624707;227;65813;-67
2022/01/19 01:27:26;;;;;;;;;;;;;;;26.85;55.34;98336.95;624645;227;65473;-67
2022/01/19 01:29:54;;;;;;;;;;;;;;;26.86;55.59;98321.57;624736;227;68646;-67
2022/01/19 01:32:22;;;;;;;;;;;;;;;26.84;53.42;98334.52;624662;227;65761;-67
2022/01/19 01:34:50;;;;;;;;;;;;;;;26.82;51.56;98333.98;624645;227;68589;-67
2022/01/19 01:37:18;;;;;;;;;;;;;;;26.81;52.95;98333.19;624667;227;68686;-67
2022/01/19 01:39:46;;;;;;;;;;;;;;;26.79;55.49;98333.48;624705;227;65085;-67
2022/01/19 01:42:15;;;;;;;;;;;;;;;26.78;53.89;98322.95;624709;227;66230;-67
2022/01/19 01:44:48;;;;;;;;;;;;;;;26.77;53.35;98319.45;624685;227;68573;-67
2022/01/19 01:47:15;;;;;;;;;;;;;;;26.77;55.33;98311.36;624554;226;65798;-67
2022/01/19 01:53:26;;;;;;;;;;;;;;;26.74;57.47;98298.44;624684;227;66113;-67
2022/01/19 01:55:11;;;;;;;;;;;;;;;26.72;55.88;98289.81;625812;226;64894;-67
2022/01/19 01:57:38;;;;;;;;;;;;;;;26.71;56.41;98284.69;625790;226;68947;-67
2022/01/19 02:00:08;;;;;;;;;;;;;;;26.67;53.80;98284.45;625838;226;68838;-67
2022/01/19 02:02:46;;;;;;;;;;;;;;;26.67;57.55;98289.84;625931;226;39185;-66
2022/01/19 02:05:16;;;;;;;;;;;;;;;26.68;54.61;98290.64;625800;226;68778;-66
2022/01/19 02:07:59;;;;;;;;;;;;;;;26.67;50.99;98289.84;625775;226;69538;-66
2022/01/19 02:10:31;;;;;;;;;;;;;;;26.66;56.61;98282.84;625419;226;43917;-66
2022/01/19 02:15:51;;;;;;;;;;;;;;;26.64;56.42;98270.72;625872;226;68779;-66
2022/01/19 02:23:50;;;;;;;;;;;;;;;26.62;55.14;98268.28;625757;226;69421;-66
2022/01/19 02:26:24;;;;;;;;;;;;;;;26.58;54.92;98269.94;625739;226;65287;-68
2022/01/19 02:29:07;;;;;;;;;;;;;;;26.56;56.83;98274.80;625520;226;68820;-68
2022/01/19 02:36:30;;;;;;;;;;;;;;;26.53;53.83;98269.97;625598;224;66725;-66
2022/01/19 02:42:43;;;;;;;;;;;;;;;26.52;54.13;98274.55;625868;226;63822;-67
2022/01/19 02:50:28;;;;;;;;;;;;;;;26.45;55.89;98279.39;625747;226;65259;-68
2022/01/19 02:52:55;;;;;;;;;;;;;;;26.46;54.65;98285.59;625750;226;66523;-68
2022/01/19 02:55:23;;;;;;;;;;;;;;;26.44;54.06;98296.66;625777;226;68858;-68
2022/01/19 02:57:51;;;;;;;;;;;;;;;26.45;54.97;98295.56;625837;226;65048;-67
2022/01/19 03:08:47;;;;;;;;;;;;;;;26.41;54.39;98297.22;625787;226;68753;-66
2022/01/19 03:11:13;;;;;;;;;;;;;;;26.38;56.68;98297.74;625679;226;65947;-67
2022/01/19 03:13:40;;;;;;;;;;;;;;;26.38;53.55;98303.13;625773;226;62874;-67
2022/01/19 03:16:08;;;;;;;;;;;;;;;26.36;54.97;98299.92;625816;226;66321;-67
2022/01/19 03:18:35;;;;;;;;;;;;;;;26.37;52.17;98301.53;625750;226;68870;-67
2022/01/19 03:21:03;;;;;;;;;;;;;;;26.34;54.81;98305.58;625741;226;65102;-67
2022/01/19 03:23:31;;;;;;;;;;;;;;;26.35;54.80;98303.69;625765;226;68824;-67
2022/01/19 03:26:01;;;;;;;;;;;;;;;26.34;53.51;98304.78;625783;226;68630;-67
2022/01/19 03:28:28;;;;;;;;;;;;;;;26.32;56.64;98305.04;625829;226;63618;-67
2022/01/19 03:30:55;;;;;;;;;;;;;;;26.30;55.90;98301.84;625764;226;66641;-67
2022/01/19 03:33:23;;;;;;;;;;;;;;;26.31;55.99;98308.83;625818;226;68712;-67
2022/01/19 03:35:51;;;;;;;;;;;;;;;26.30;55.25;98304.53;625745;226;65072;-67
2022/01/19 03:38:19;;;;;;;;;;;;;;;26.30;54.78;98307.23;625770;226;66552;-67
2022/01/19 03:40:47;;;;;;;;;;;;;;;26.29;55.58;98316.37;625821;226;69439;-67
2022/01/19 03:43:15;;;;;;;;;;;;;;;26.27;54.64;98309.64;625800;226;64971;-67
2022/01/19 03:45:53;;;;;;;;;;;;;;;26.24;53.74;98313.69;625375;226;49902;-67
2022/01/19 03:48:42;;;;;;;;;;;;;;;26.25;54.93;98323.41;625759;226;68706;-67
2022/01/19 03:51:05;;;;;;;;;;;;;;;26.22;52.36;98315.87;625348;226;64960;-66
2022/01/19 03:53:33;;;;;;;;;;;;;;;26.20;56.63;98318.03;624637;227;67357;-66
2022/01/19 03:56:01;;;;;;;;;;;;;;;26.20;55.22;98307.25;624703;227;69066;-66
2022/01/19 03:58:29;;;;;;;;;;;;;;;26.19;55.78;98316.42;624679;227;63722;-66
2022/01/19 04:00:59;;;;;;;;;;;;;;;26.17;53.17;98315.88;624643;227;65776;-66
2022/01/19 04:06:27;;;;;;;;;;;;;;;26.17;54.13;98313.19;624609;227;62593;-67
2022/01/19 04:08:54;;;;;;;;;;;;;;;26.17;53.88;98317.78;624638;227;69038;-67
2022/01/19 04:11:23;;;;;;;;;;;;;;;26.13;56.56;98318.30;624655;227;66554;-67
2022/01/19 04:16:26;;;;;;;;;;;;;;;26.10;55.99;98321.54;624652;227;66653;-65
2022/01/19 04:19:05;;;;;;;;;;;;;;;26.10;54.17;98318.84;624619;227;68557;-65
2022/01/19 04:21:23;;;;;;;;;;;;;;;26.09;56.25;98325.33;624367;226;64992;-65
2022/01/19 04:23:51;;;;;;;;;;;;;;;26.07;57.42;98332.06;624635;227;66137;-66
2022/01/19 04:26:18;;;;;;;;;;;;;;;26.06;54.79;98333.95;624680;227;68855;-68
2022/01/19 04:28:46;;;;;;;;;;;;;;;26.04;55.28;98338.80;624608;227;65816;-68
2022/01/19 04:31:14;;;;;;;;;;;;;;;26.06;54.99;98335.84;624616;227;69371;-68
2022/01/19 04:33:44;;;;;;;;;;;;;;;26.05;54.54;98342.30;624622;227;69141;-68
2022/01/19 04:39:22;;;;;;;;;;;;;;;26.03;53.54;98339.89;624685;227;68708;-67
2022/01/19 04:44:36;;;;;;;;;;;;;;;26.01;57.39;98343.94;624711;227;63715;-67
2022/01/19 05:03:59;;;;;;;;;;;;;;;25.89;56.01;98363.05;615148;226;49863;-66
2022/01/19 05:06:23;;;;;;;;;;;;;;;25.89;58.15;98361.19;625496;226;46913;-66
2022/01/19 05:14:09;;;;;;;;;;;;;;;25.83;60.00;98353.33;625836;226;46718;-66
2022/01/19 05:16:36;;;;;;;;;;;;;;;25.81;58.58;98356.31;625827;226;65183;-66
2022/01/19 05:19:04;;;;;;;;;;;;;;;25.81;58.42;98360.87;625851;226;69305;-66
2022/01/19 05:21:33;;;;;;;;;;;;;;;25.81;57.02;98367.09;625805;226;45880;-66
2022/01/19 05:24:04;;;;;;;;;;;;;;;25.79;59.29;98366.54;625172;226;43514;-66
2022/01/19 05:26:36;;;;;;;;;;;;;;;25.79;58.72;98363.05;625805;226;69611;-66
2022/01/19 05:29:06;;;;;;;;;;;;;;;25.76;58.90;98359.00;625739;226;66821;-66
2022/01/19 05:31:35;;;;;;;;;;;;;;;25.76;57.62;98375.16;625789;226;65780;-66
2022/01/19 05:34:04;;;;;;;;;;;;;;;25.77;59.56;98378.66;625887;226;48914;-66
2022/01/19 05:36:36;;;;;;;;;;;;;;;25.74;59.29;98382.69;625705;226;45873;-66
2022/01/19 05:39:09;;;;;;;;;;;;;;;25.73;58.39;98381.09;616379;226;46315;-66
2022/01/19 05:41:41;;;;;;;;;;;;;;;25.75;56.11;98378.91;625709;224;49334;-67
2022/01/19 05:44:10;;;;;;;;;;;;;;;25.72;58.68;98381.34;625842;226;46186;-66
2022/01/19 05:46:38;;;;;;;;;;;;;;;25.70;59.63;98381.62;625823;226;64727;-66
2022/01/19 05:49:05;;;;;;;;;;;;;;;25.69;58.57;98380.80;625787;226;66349;-66
2022/01/19 05:51:33;;;;;;;;;;;;;;;25.68;57.46;98391.85;625328;226;68904;-66
2022/01/19 05:54:00;;;;;;;;;;;;;;;25.67;58.81;98390.22;624672;227;65055;-66
2022/01/19 05:56:28;;;;;;;;;;;;;;;25.66;56.11;98391.30;624682;227;65828;-66
2022/01/19 05:59:03;;;;;;;;;;;;;;;25.67;57.55;98393.74;622721;227;50049;-67
2022/01/19 06:01:31;;;;;;;;;;;;;;;25.66;58.09;98402.08;624714;227;65152;-66
2022/01/19 06:03:58;;;;;;;;;;;;;;;25.66;58.36;98396.69;624638;227;65906;-66
2022/01/19 06:06:40;;;;;;;;;;;;;;;25.64;57.75;98402.33;624346;226;46094;-66
2022/01/19 06:09:32;;;;;;;;;;;;;;;25.64;56.75;98409.60;624470;226;43881;-67
2022/01/19 06:11:41;;;;;;;;;;;;;;;25.63;58.98;98400.72;624082;226;68750;-67
2022/01/19 06:14:09;;;;;;;;;;;;;;;25.63;59.76;98406.11;624585;227;66953;-66
2022/01/19 06:16:36;;;;;;;;;;;;;;;25.61;58.16;98410.14;624614;227;65021;-67
2022/01/19 06:19:04;;;;;;;;;;;;;;;25.60;59.96;98412.03;624533;227;69437;-67
2022/01/19 06:21:31;;;;;;;;;;;;;;;25.60;59.05;98403.95;624567;227;69357;-67
2022/01/19 06:23:59;;;;;;;;;;;;;;;25.61;58.59;98405.56;624522;227;62998;-67
2022/01/19 06:26:27;;;;;;;;;;;;;;;25.62;58.28;98407.20;624207;227;69582;-67
2022/01/19 06:28:55;;;;;;;;;;;;;;;25.63;57.77;98419.56;624076;227;66543;-67
2022/01/19 06:31:22;;;;;;;;;;;;;;;25.61;58.10;98412.83;624660;227;65067;-67
2022/01/19 06:33:51;;;;;;;;;;;;;;;25.59;55.93;98404.20;624660;226;46961;-67
2022/01/19 06:36:21;;;;;;;;;;;;;;;25.60;59.69;98406.65;624656;226;46006;-66
2022/01/19 06:38:50;;;;;;;;;;;;;;;25.61;58.71;98404.76;624514;226;43286;-66
2022/01/19 06:41:19;;;;;;;;;;;;;;;25.61;54.74;98410.14;624495;226;47693;-66
2022/01/19 06:43:47;;;;;;;;;;;;;;;25.59;59.79;98406.91;624650;227;68615;-67
2022/01/19 06:46:14;;;;;;;;;;;;;;;25.57;55.55;98411.77;624626;227;62688;-67
2022/01/19 06:48:42;;;;;;;;;;;;;;;25.55;56.29;98409.33;624501;227;66437;-67
2022/01/19 06:51:11;;;;;;;;;;;;;;;25.56;59.63;98412.83;624479;226;69215;-67
2022/01/19 06:53:40;;;;;;;;;;;;;;;25.50;53.36;98413.89;623943;226;45000;-66
2022/01/19 06:56:09;;;;;;;;;;;;;;;25.34;55.21;98405.78;624250;226;50588;-65
2022/01/19 06:58:37;;;;;;;;;;;;;;;25.40;52.46;98410.13;624304;227;67715;-66
2022/01/19 07:01:23;;;;;;;;;;;;;;;25.50;53.51;98411.20;617590;229;39118;-67
2022/01/19 07:04:12;;;;;;;;;;;;;;;25.50;59.24;98411.20;617355;228;45840;-67
2022/01/19 07:06:41;;;;;;;;;;;;;;;25.47;59.03;98417.92;616692;229;68517;-67
2022/01/19 07:09:19;;;;;;;;;;;;;;;25.45;60.82;98406.61;617495;228;42726;-67
2022/01/19 07:11:52;;;;;;;;;;;;;;;25.44;60.08;98405.01;617449;228;49825;-64
2022/01/19 07:14:20;;;;;;;;;;;;;;;25.40;52.25;98399.36;617484;229;66545;-65
2022/01/19 07:16:49;;;;;;;;;;;;;;;25.46;55.38;98405.56;617563;229;45203;-68
2022/01/19 07:19:17;;;;;;;;;;;;;;;25.39;60.86;98407.69;617451;229;68605;-67
2022/01/19 07:21:46;;;;;;;;;;;;;;;25.44;54.97;98405.81;617489;229;68934;-68
2022/01/19 07:24:14;;;;;;;;;;;;;;;25.48;59.78;98414.15;617460;229;64860;-69
2022/01/19 07:26:42;;;;;;;;;;;;;;;25.47;55.11;98413.34;617513;229;69600;-67
2022/01/19 07:29:10;;;;;;;;;;;;;;;25.47;55.62;98407.16;617401;229;69482;-67
2022/01/19 07:31:38;;;;;;;;;;;;;;;25.47;58.15;98407.97;617473;229;62894;-68
2022/01/19 07:34:07;;;;;;;;;;;;;;;25.47;56.91;98405.27;617502;227;50379;-69
2022/01/19 07:36:36;;;;;;;;;;;;;;;25.47;55.47;98410.66;617498;229;69370;-69
2022/01/19 07:39:05;;;;;;;;;;;;;;;25.49;59.51;98406.91;617500;229;63598;-67
2022/01/19 07:41:32;;;;;;;;;;;;;;;25.47;54.65;98397.20;617469;229;69334;-67
2022/01/19 07:44:02;;;;;;;;;;;;;;;25.47;56.95;98389.12;617905;227;46377;-67
2022/01/19 07:46:48;;;;;;;;;;;;;;;25.49;56.46;98390.76;617592;229;39937;-69
2022/01/19 07:49:29;;;;;;;;;;;;;;;25.48;56.06;98387.23;617608;228;48158;-68
2022/01/19 07:52:15;;;;;;;;;;;;;;;25.48;55.68;98389.92;618272;229;42068;-66
2022/01/19 07:54:59;;;;;;;;;;;;;;;25.42;60.41;98391.80;618646;228;43405;-66
2022/01/19 07:57:32;;;;;;;;;;;;;;;25.42;55.54;98391.00;617026;228;49762;-65
2022/01/19 08:00:01;;;;;;;;;;;;;;;25.43;53.64;98385.36;618778;228;48050;-67
2022/01/19 08:02:33;;;;;;;;;;;;;;;25.42;54.96;98381.04;618746;228;42172;-66
2022/01/19 08:05:08;;;;;;;;;;;;;;;25.43;57.94;98379.98;618793;228;49844;-63
2022/01/19 08:07:37;;;;;;;;;;;;;;;25.44;55.21;98378.09;618534;229;68551;-67
2022/01/19 08:10:06;;;;;;;;;;;;;;;25.43;59.14;98388.06;618587;229;65040;-66
2022/01/19 08:12:35;;;;;;;;;;;;;;;25.40;52.12;98377.83;618709;229;66528;-67
2022/01/19 08:15:03;;;;;;;;;;;;;;;25.44;58.48;98383.48;618525;229;68715;-67
2022/01/19 08:17:32;;;;;;;;;;;;;;;25.45;59.04;98383.22;618728;228;43677;-66
2022/01/19 08:20:00;;;;;;;;;;;;;;;25.47;59.49;98388.33;618619;229;68681;-66
2022/01/19 08:22:28;;;;;;;;;;;;;;;25.45;59.35;98387.77;618514;229;66384;-64
2022/01/19 08:25:15;;;;;;;;;;;;;;;25.46;58.80;98387.52;618637;228;44990;-66
2022/01/19 08:27:43;;;;;;;;;;;;;;;25.49;60.81;98380.80;618674;229;68740;-66
2022/01/19 08:30:11;;;;;;;;;;;;;;;25.51;58.08;98370.58;618570;229;67488;-66
2022/01/19 08:32:39;;;;;;;;;;;;;;;25.52;60.39;98371.38;618626;229;65011;-66
2022/01/19 08:35:09;;;;;;;;;;;;;;;25.51;60.83;98365.20;618590;228;50549;-66
2022/01/19 08:37:41;;;;;;;;;;;;;;;25.51;60.65;98362.50;614872;228;48287;-68
2022/01/19 08:40:09;;;;;;;;;;;;;;;25.53;61.87;98362.22;618523;229;62795;-67
2022/01/19 08:42:39;;;;;;;;;;;;;;;25.54;61.75;98361.16;618675;228;66621;-66
2022/01/19 08:45:08;;;;;;;;;;;;;;;25.55;62.16;98355.49;618514;229;69188;-65
2022/01/19 08:47:39;;;;;;;;;;;;;;;25.56;61.25;98358.98;618640;229;63266;-65
2022/01/19 08:50:15;;;;;;;;;;;;;;;25.58;62.31;98356.84;618495;228;47386;-66
2022/01/19 08:52:51;;;;;;;;;;;;;;;25.61;61.05;98354.41;617573;228;45900;-67
2022/01/19 08:55:31;;;;;;;;;;;;;;;25.63;62.63;98359.54;617892;228;46337;-68
2022/01/19 08:58:00;;;;;;;;;;;;;;;25.65;60.46;98352.02;617452;228;46907;-67
2022/01/19 09:00:28;;;;;;;;;;;;;;;25.67;61.05;98350.66;617464;229;66454;-68
2022/01/19 09:02:56;;;;;;;;;;;;;;;25.66;59.51;98359.00;617295;229;64873;-64
2022/01/19 09:05:23;;;;;;;;;;;;;;;25.68;60.44;98354.16;617344;229;68453;-71
2022/01/19 09:07:52;;;;;;;;;;;;;;;25.69;60.80;98353.88;616770;229;66435;-71
2022/01/19 09:10:21;;;;;;;;;;;;;;;25.73;61.55;98348.78;617269;229;64958;-71
2022/01/19 09:12:49;;;;;;;;;;;;;;;25.73;61.37;98347.95;617306;229;68992;-72
2022/01/19 09:15:19;;;;;;;;;;;;;;;25.74;60.65;98346.89;617422;229;68717;-72
2022/01/19 09:17:46;;;;;;;;;;;;;;;25.77;60.73;98349.03;617239;229;65032;-68
2022/01/19 09:20:17;;;;;;;;;;;;;;;25.79;61.32;98341.50;617137;228;66627;-72
2022/01/19 09:22:45;;;;;;;;;;;;;;;25.82;62.38;98340.96;617448;229;68844;-72
2022/01/19 09:25:13;;;;;;;;;;;;;;;25.84;60.04;98333.45;617309;229;65312;-72
2022/01/19 09:27:41;;;;;;;;;;;;;;;25.89;61.06;98331.56;617319;229;66437;-64
2022/01/19 09:30:10;;;;;;;;;;;;;;;25.89;61.11;98320.79;617342;229;66475;-64
2022/01/19 09:32:39;;;;;;;;;;;;;;;25.91;60.93;98328.58;617226;228;62796;-68
2022/01/19 09:35:09;;;;;;;;;;;;;;;25.93;61.78;98312.16;617318;229;68685;-66
2022/01/19 09:37:37;;;;;;;;;;;;;;;25.93;61.36;98314.86;617489;229;68778;-67
2022/01/19 09:40:05;;;;;;;;;;;;;;;25.95;60.95;98301.94;617377;229;65197;-67
2022/01/19 09:42:34;;;;;;;;;;;;;;;25.98;60.80;98306.77;617318;229;68680;-65
2022/01/19 09:45:03;;;;;;;;;;;;;;;26.01;59.86;98308.92;617423;229;68721;-63
2022/01/19 09:47:31;;;;;;;;;;;;;;;26.02;60.01;98311.32;617457;229;64849;-63
2022/01/19 09:49:58;;;;;;;;;;;;;;;26.05;61.16;98307.28;617513;229;68980;-63
2022/01/19 09:52:26;;;;;;;;;;;;;;;26.07;59.10;98308.62;617514;229;68146;-63
2022/01/19 09:54:54;;;;;;;;;;;;;;;26.11;59.57;98303.52;617433;229;65023;-67
2022/01/19 09:57:22;;;;;;;;;;;;;;;26.07;58.53;98300.54;617434;229;68365;-63
2022/01/19 09:59:50;;;;;;;;;;;;;;;26.06;59.68;98285.47;617454;229;68368;-64
2022/01/19 10:02:18;;;;;;;;;;;;;;;26.07;59.04;98286.27;617467;229;62742;-65
2022/01/19 10:04:47;;;;;;;;;;;;;;;26.11;57.70;98284.66;617465;229;66343;-66
2022/01/19 10:07:17;;;;;;;;;;;;;;;26.09;55.68;98282.22;617493;229;68265;-67
2022/01/19 10:09:49;;;;;;;;;;;;;;;26.15;55.34;98291.09;617402;229;64832;-65
2022/01/19 10:18:25;;;;;;;;;;;;;;;26.16;56.50;98273.84;617461;229;63147;-68
2022/01/19 10:21:12;;;;;;;;;;;;;;;26.16;57.18;98259.56;617473;229;69059;-67
2022/01/19 10:23:41;;;;;;;;;;;;;;;26.19;56.23;98264.40;617247;228;68714;-67
2022/01/19 10:26:10;;;;;;;;;;;;;;;26.21;55.17;98264.94;617480;229;63117;-67
2022/01/19 10:28:56;;;;;;;;;;;;;;;26.21;54.11;98260.35;617447;229;68923;-66
2022/01/19 10:31:23;;;;;;;;;;;;;;;26.25;54.49;98269.52;617406;229;68593;-66
2022/01/19 10:34:09;;;;;;;;;;;;;;;26.29;52.44;98265.17;617518;229;65089;-65
2022/01/19 10:36:49;;;;;;;;;;;;;;;26.31;52.74;98268.41;617447;229;68676;-66
2022/01/19 10:39:19;;;;;;;;;;;;;;;26.33;53.27;98260.86;617414;229;68548;-65
2022/01/19 10:41:59;;;;;;;;;;;;;;;26.35;51.85;98264.09;617519;228;46233;-64
2022/01/19 10:44:38;;;;;;;;;;;;;;;26.37;51.44;98250.32;617414;229;66481;-66
2022/01/19 10:47:05;;;;;;;;;;;;;;;26.39;51.98;98233.89;617462;229;68533;-65
2022/01/19 10:49:50;;;;;;;;;;;;;;;26.42;51.90;98236.83;617397;229;63147;-62
2022/01/19 10:52:34;;;;;;;;;;;;;;;26.42;52.66;98233.33;618152;229;68698;-66
2022/01/19 10:55:03;;;;;;;;;;;;;;;26.44;53.83;98226.58;618604;229;68860;-66
2022/01/19 10:57:32;;;;;;;;;;;;;;;26.45;52.85;98216.59;618583;229;63101;-66
2022/01/19 11:00:02;;;;;;;;;;;;;;;26.46;50.56;98208.22;618548;229;66586;-65
2022/01/19 11:02:31;;;;;;;;;;;;;;;26.49;50.61;98212.25;616478;229;66580;-65
2022/01/19 11:04:58;;;;;;;;;;;;;;;26.49;51.32;98204.16;618453;229;64948;-65
2022/01/19 11:07:25;;;;;;;;;;;;;;;26.45;55.07;98209.31;618572;229;68640;-62
2022/01/19 11:10:09;;;;;;;;;;;;;;;26.50;49.26;98206.59;618638;228;66113;-63
2022/01/19 11:12:39;;;;;;;;;;;;;;;26.58;49.49;98205.23;618481;228;65133;-65
2022/01/19 11:14:59;;;;;;;;;;;;;;;26.61;49.46;98198.48;618629;228;68341;-65
2022/01/19 11:17:26;;;;;;;;;;;;;;;26.62;49.92;98192.80;618494;229;68518;-67
2022/01/19 11:19:54;;;;;;;;;;;;;;;26.65;50.10;98191.43;618580;229;64912;-64
2022/01/19 11:22:40;;;;;;;;;;;;;;;26.64;51.04;98179.05;618540;229;66068;-65
2022/01/19 11:25:23;;;;;;;;;;;;;;;26.64;52.19;98190.63;618653;228;48697;-60
2022/01/19 11:27:51;;;;;;;;;;;;;;;26.62;51.75;98179.31;617903;229;64893;-61
2022/01/19 11:30:21;;;;;;;;;;;;;;;26.64;50.84;98179.05;618610;229;68500;-60
2022/01/19 11:33:06;;;;;;;;;;;;;;;26.65;50.73;98175.25;618530;229;68550;-61
2022/01/19 11:35:35;;;;;;;;;;;;;;;26.65;50.65;98159.88;618609;229;65252;-61
2022/01/19 11:38:04;;;;;;;;;;;;;;;26.66;51.54;98166.90;618611;229;66126;-61
2022/01/19 11:40:36;;;;;;;;;;;;;;;26.66;52.19;98158.81;617931;229;66184;-61
2022/01/19 11:43:11;;;;;;;;;;;;;;;26.67;51.52;98144.23;618462;229;62918;-59
2022/01/19 11:45:40;;;;;;;;;;;;;;;26.66;53.41;98145.33;616066;229;68610;-59
2022/01/19 11:48:18;;;;;;;;;;;;;;;26.67;52.86;98130.75;618459;229;68301;-61
2022/01/19 11:50:46;;;;;;;;;;;;;;;26.63;51.67;98123.50;618403;229;65051;-69
2022/01/19 11:53:13;;;;;;;;;;;;;;;26.61;54.52;98115.70;617492;229;68474;-69
2022/01/19 11:55:42;;;;;;;;;;;;;;;26.59;54.97;98112.48;617489;229;68345;-69
2022/01/19 11:58:24;;;;;;;;;;;;;;;26.58;54.09;98105.48;617472;229;64876;-70
2022/01/19 12:00:52;;;;;;;;;;;;;;;26.57;52.70;98095.77;617545;229;66110;-71
2022/01/19 12:03:33;;;;;;;;;;;;;;;26.58;51.45;98093.91;617440;229;68370;-70
2022/01/19 12:06:01;;;;;;;;;;;;;;;26.58;51.04;98094.70;617503;229;63139;-70
2022/01/19 12:08:31;;;;;;;;;;;;;;;26.57;51.16;98093.08;617477;229;66107;-69
2022/01/19 12:11:20;;;;;;;;;;;;;;;26.56;52.07;98100.36;617507;228;48283;-68
2022/01/19 12:16:49;;;;;;;;;;;;;;;26.58;50.75;98093.91;616318;229;66272;-68
2022/01/19 13:27:26;;;;;;;;;;;;;;;26.74;51.88;98006.41;602322;235;67882;-67
2022/01/19 13:29:54;;;;;;;;;;;;;;;26.73;52.12;98005.58;602462;234;63257;-67
2022/01/19 13:32:22;;;;;;;;;;;;;;;26.72;54.06;97995.09;602485;235;69161;-66
2022/01/19 13:34:51;;;;;;;;;;;;;;;26.71;53.78;97990.77;602423;235;68591;-64
2022/01/19 13:37:20;;;;;;;;;;;;;;;26.70;51.67;97976.48;599729;235;65130;-66
2022/01/19 13:39:49;;;;;;;;;;;;;;;26.70;53.13;97973.79;602438;235;66178;-66
2022/01/19 13:42:18;;;;;;;;;;;;;;;26.68;52.87;97970.60;601556;234;65357;-65
2022/01/19 13:44:48;;;;;;;;;;;;;;;26.66;53.20;97971.97;602167;234;63004;-64
2022/01/19 13:47:26;;;;;;;;;;;;;;;26.66;53.61;97972.77;602462;235;68278;-65
2022/01/19 13:49:47;;;;;;;;;;;;;;;26.66;53.77;97966.58;602193;234;68355;-65
2022/01/19 13:52:14;;;;;;;;;;;;;;;26.64;53.20;97969.55;602340;234;63829;-64
2022/01/19 13:54:42;;;;;;;;;;;;;;;26.65;52.71;97962.25;602390;235;68210;-67
2022/01/19 13:57:09;;;;;;;;;;;;;;;26.65;52.50;97960.36;602454;235;68050;-63
2022/01/19 13:59:37;;;;;;;;;;;;;;;26.68;52.06;97970.60;602472;235;65011;-63
2022/01/19 14:02:06;;;;;;;;;;;;;;;26.70;52.84;97957.61;602438;235;66261;-64
2022/01/19 14:04:35;;;;;;;;;;;;;;;26.71;53.23;97947.62;602274;234;68594;-65
2022/01/19 14:07:04;;;;;;;;;;;;;;;26.74;53.82;97955.97;602423;235;62973;-64
2022/01/19 14:09:34;;;;;;;;;;;;;;;26.74;53.43;97950.58;601606;234;68441;-64
2022/01/19 14:12:03;;;;;;;;;;;;;;;26.75;53.81;97949.47;602427;234;67118;-63
2022/01/19 14:14:39;;;;;;;;;;;;;;;26.75;53.38;97952.17;602442;235;65776;-64
2022/01/19 14:17:11;;;;;;;;;;;;;;;26.75;54.71;97962.95;602496;235;68467;-63
2022/01/19 14:19:48;;;;;;;;;;;;;;;26.77;53.53;97960.78;602451;235;68111;-62
2022/01/19 14:22:18;;;;;;;;;;;;;;;26.78;54.15;97970.47;602516;235;65033;-65
2022/01/19 14:24:47;;;;;;;;;;;;;;;26.79;54.63;97973.97;599788;235;67876;-65
2022/01/19 14:27:16;;;;;;;;;;;;;;;26.77;54.59;97963.48;611734;231;65842;-64
2022/01/19 14:30:02;;;;;;;;;;;;;;;26.76;55.26;97959.19;611601;231;63520;-64
2022/01/19 14:32:35;;;;;;;;;;;;;;;26.75;55.97;97964.86;612403;231;68337;-64
2022/01/19 14:35:03;;;;;;;;;;;;;;;26.74;54.15;97964.05;612416;231;68199;-65
2022/01/19 14:37:31;;;;;;;;;;;;;;;26.74;54.80;97961.36;612454;231;65208;-64
2022/01/19 14:40:00;;;;;;;;;;;;;;;26.72;53.73;97963.53;612458;231;66988;-64
2022/01/19 14:42:29;;;;;;;;;;;;;;;26.73;53.97;97951.64;612419;231;66243;-63
2022/01/19 14:45:23;;;;;;;;;;;;;;;26.73;54.91;97958.94;612165;231;65122;-65
2022/01/19 14:47:49;;;;;;;;;;;;;;;26.74;53.53;97955.97;610615;231;66352;-69
2022/01/19 14:50:26;;;;;;;;;;;;;;;26.75;53.42;97948.67;612431;231;68326;-62
2022/01/19 14:52:55;;;;;;;;;;;;;;;26.69;55.20;97944.44;612349;231;65200;-63
2022/01/19 14:55:24;;;;;;;;;;;;;;;26.73;50.75;97946.25;612351;231;68555;-62
2022/01/19 14:57:52;;;;;;;;;;;;;;;26.79;50.60;97939.73;612136;231;68587;-63
2022/01/19 15:00:21;;;;;;;;;;;;;;;26.83;51.01;97944.55;612439;231;65045;-64
2022/01/19 15:02:51;;;;;;;;;;;;;;;26.86;51.00;97949.38;612352;231;68481;-63
2022/01/19 15:05:23;;;;;;;;;;;;;;;26.87;50.30;97940.98;612343;231;68263;-62
2022/01/19 15:07:47;;;;;;;;;;;;;;;26.88;51.05;97939.91;612047;231;64867;-62
2022/01/19 15:10:15;;;;;;;;;;;;;;;26.90;51.53;97944.99;612442;231;66356;-64
2022/01/19 15:12:44;;;;;;;;;;;;;;;26.91;50.99;97933.13;612445;231;65968;-64
2022/01/19 15:15:12;;;;;;;;;;;;;;;26.93;50.79;97941.75;612377;231;63110;-63
2022/01/19 15:17:40;;;;;;;;;;;;;;;26.93;51.34;97944.45;612429;231;66401;-63
2022/01/19 15:20:07;;;;;;;;;;;;;;;26.95;51.80;97942.24;612392;231;66698;-64
2022/01/19 15:22:35;;;;;;;;;;;;;;;26.95;51.40;97943.04;612459;231;62744;-63
2022/01/19 15:25:03;;;;;;;;;;;;;;;26.97;51.78;97945.46;612363;231;68699;-63
2022/01/19 15:27:31;;;;;;;;;;;;;;;26.98;51.29;97953.28;613059;231;68444;-64
2022/01/19 15:29:59;;;;;;;;;;;;;;;26.99;51.21;97948.69;613017;231;64946;-64
2022/01/19 15:32:26;;;;;;;;;;;;;;;27.01;51.43;97957.30;613027;231;66184;-64